sensor_id;sensor_type;location;lat;lon;timestamp;P1;durP1;ratioP1;P2;durP2;ratioP2
46723;SDS011;32463;48.298;11.620;2023-03-03T00:01:07;92.25;;;31.33;;
46723;SDS011;32463;48.298;11.620;2023-03-03T00:03:33;85.32;;;30.98;;
46723;SDS011;32463;48.298;11.620;2023-03-03T00:06:01;85.18;;;31.08;;
46723;SDS011;32463;48.298;11.620;2023-03-03T00:08:28;96.95;;;32.10;;
46723;SDS011;32463;48.298;11.620;2023-03-03T00:10:57;104.80;;;33.78;;
46723;SDS011;32463;48.298;11.620;2023-03-03T00:13:25;100.60;;;32.70;;
46723;SDS011;32463;48.298;11.620;2023-03-03T00:15:53;100.82;;;33.10;;
46723;SDS011;32463;48.298;11.620;2023-03-03T00:21:22;101.57;;;32.42;;
46723;SDS011;32463;48.298;11.620;2023-03-03T00:23:50;90.45;;;30.70;;
46723;SDS011;32463;48.298;11.620;2023-03-03T00:26:22;106.65;;;32.47;;
46723;SDS011;32463;48.298;11.620;2023-03-03T00:28:54;100.38;;;32.00;;
46723;SDS011;32463;48.298;11.620;2023-03-03T00:31:42;90.82;;;31.10;;
46723;SDS011;32463;48.298;11.620;2023-03-03T00:36:44;91.95;;;31.48;;
46723;SDS011;32463;48.298;11.620;2023-03-03T00:41:51;89.35;;;31.50;;
46723;SDS011;32463;48.298;11.620;2023-03-03T00:44:37;97.40;;;31.55;;
46723;SDS011;32463;48.298;11.620;2023-03-03T00:49:43;108.93;;;34.08;;
46723;SDS011;32463;48.298;11.620;2023-03-03T00:52:13;97.28;;;32.33;;
46723;SDS011;32463;48.298;11.620;2023-03-03T00:57:09;97.88;;;32.00;;
46723;SDS011;32463;48.298;11.620;2023-03-03T00:59:37;107.50;;;33.10;;
46723;SDS011;32463;48.298;11.620;2023-03-03T01:02:04;100.75;;;31.98;;
46723;SDS011;32463;48.298;11.620;2023-03-03T01:04:31;110.60;;;35.10;;
46723;SDS011;32463;48.298;11.620;2023-03-03T01:06:57;98.65;;;32.03;;
46723;SDS011;32463;48.298;11.620;2023-03-03T01:09:24;101.78;;;32.22;;
46723;SDS011;32463;48.298;11.620;2023-03-03T01:11:50;101.10;;;33.58;;
46723;SDS011;32463;48.298;11.620;2023-03-03T01:14:17;106.80;;;33.28;;
46723;SDS011;32463;48.298;11.620;2023-03-03T01:16:44;111.05;;;33.78;;
46723;SDS011;32463;48.298;11.620;2023-03-03T01:19:12;105.22;;;32.97;;
46723;SDS011;32463;48.298;11.620;2023-03-03T01:21:39;109.88;;;32.53;;
46723;SDS011;32463;48.298;11.620;2023-03-03T01:24:06;113.75;;;34.42;;
46723;SDS011;32463;48.298;11.620;2023-03-03T01:26:32;112.35;;;33.25;;
46723;SDS011;32463;48.298;11.620;2023-03-03T01:28:59;107.85;;;32.92;;
46723;SDS011;32463;48.298;11.620;2023-03-03T01:31:25;103.72;;;34.08;;
46723;SDS011;32463;48.298;11.620;2023-03-03T01:33:52;107.45;;;33.47;;
46723;SDS011;32463;48.298;11.620;2023-03-03T01:36:22;102.30;;;33.45;;
46723;SDS011;32463;48.298;11.620;2023-03-03T01:38:50;108.50;;;33.10;;
46723;SDS011;32463;48.298;11.620;2023-03-03T01:41:17;105.90;;;33.88;;
46723;SDS011;32463;48.298;11.620;2023-03-03T01:43:45;100.30;;;33.70;;
46723;SDS011;32463;48.298;11.620;2023-03-03T01:48:49;102.80;;;31.92;;
46723;SDS011;32463;48.298;11.620;2023-03-03T01:51:20;107.43;;;34.45;;
46723;SDS011;32463;48.298;11.620;2023-03-03T01:53:52;103.53;;;33.25;;
46723;SDS011;32463;48.298;11.620;2023-03-03T01:56:21;106.00;;;33.45;;
46723;SDS011;32463;48.298;11.620;2023-03-03T01:58:52;103.57;;;32.03;;
46723;SDS011;32463;48.298;11.620;2023-03-03T02:01:26;104.28;;;33.05;;
46723;SDS011;32463;48.298;11.620;2023-03-03T02:03:54;115.75;;;33.88;;
46723;SDS011;32463;48.298;11.620;2023-03-03T02:06:22;105.47;;;32.88;;
46723;SDS011;32463;48.298;11.620;2023-03-03T02:08:56;114.67;;;33.50;;
46723;SDS011;32463;48.298;11.620;2023-03-03T02:11:27;100.85;;;31.77;;
46723;SDS011;32463;48.298;11.620;2023-03-03T02:13:57;105.13;;;32.25;;
46723;SDS011;32463;48.298;11.620;2023-03-03T02:16:24;111.90;;;33.05;;
46723;SDS011;32463;48.298;11.620;2023-03-03T02:18:51;111.28;;;33.42;;
46723;SDS011;32463;48.298;11.620;2023-03-03T02:21:18;104.53;;;31.95;;
46723;SDS011;32463;48.298;11.620;2023-03-03T02:26:26;113.93;;;33.20;;
46723;SDS011;32463;48.298;11.620;2023-03-03T02:28:55;129.77;;;34.53;;
46723;SDS011;32463;48.298;11.620;2023-03-03T02:31:22;126.97;;;34.72;;
46723;SDS011;32463;48.298;11.620;2023-03-03T02:33:51;127.70;;;35.40;;
46723;SDS011;32463;48.298;11.620;2023-03-03T02:36:19;115.57;;;32.47;;
46723;SDS011;32463;48.298;11.620;2023-03-03T02:38:50;120.13;;;34.28;;
46723;SDS011;32463;48.298;11.620;2023-03-03T02:44:25;117.75;;;35.65;;
46723;SDS011;32463;48.298;11.620;2023-03-03T02:46:54;114.75;;;33.03;;
46723;SDS011;32463;48.298;11.620;2023-03-03T02:49:22;119.07;;;35.45;;
46723;SDS011;32463;48.298;11.620;2023-03-03T02:51:51;118.20;;;33.88;;
46723;SDS011;32463;48.298;11.620;2023-03-03T02:54:19;118.07;;;33.33;;
46723;SDS011;32463;48.298;11.620;2023-03-03T02:56:47;111.75;;;34.33;;
46723;SDS011;32463;48.298;11.620;2023-03-03T02:59:14;107.72;;;33.92;;
46723;SDS011;32463;48.298;11.620;2023-03-03T03:01:41;111.95;;;34.13;;
46723;SDS011;32463;48.298;11.620;2023-03-03T03:06:36;109.80;;;34.17;;
46723;SDS011;32463;48.298;11.620;2023-03-03T03:09:04;107.45;;;33.28;;
46723;SDS011;32463;48.298;11.620;2023-03-03T03:11:32;123.15;;;34.38;;
46723;SDS011;32463;48.298;11.620;2023-03-03T03:14:00;131.38;;;36.17;;
46723;SDS011;32463;48.298;11.620;2023-03-03T03:16:27;133.98;;;35.25;;
46723;SDS011;32463;48.298;11.620;2023-03-03T03:18:55;123.47;;;36.65;;
46723;SDS011;32463;48.298;11.620;2023-03-03T03:21:22;125.93;;;35.40;;
46723;SDS011;32463;48.298;11.620;2023-03-03T03:23:49;121.32;;;35.47;;
46723;SDS011;32463;48.298;11.620;2023-03-03T03:26:16;110.05;;;34.58;;
46723;SDS011;32463;48.298;11.620;2023-03-03T03:28:45;110.88;;;33.40;;
46723;SDS011;32463;48.298;11.620;2023-03-03T03:31:12;102.82;;;33.38;;
46723;SDS011;32463;48.298;11.620;2023-03-03T03:33:38;112.10;;;34.53;;
46723;SDS011;32463;48.298;11.620;2023-03-03T03:36:06;111.07;;;35.15;;
46723;SDS011;32463;48.298;11.620;2023-03-03T03:38:33;101.38;;;32.38;;
46723;SDS011;32463;48.298;11.620;2023-03-03T03:41:01;104.57;;;33.63;;
46723;SDS011;32463;48.298;11.620;2023-03-03T03:43:30;103.20;;;32.67;;
46723;SDS011;32463;48.298;11.620;2023-03-03T03:45:56;91.07;;;31.38;;
46723;SDS011;32463;48.298;11.620;2023-03-03T03:48:23;94.57;;;31.98;;
46723;SDS011;32463;48.298;11.620;2023-03-03T03:50:50;103.07;;;33.03;;
46723;SDS011;32463;48.298;11.620;2023-03-03T03:53:17;96.80;;;31.90;;
46723;SDS011;32463;48.298;11.620;2023-03-03T03:55:44;90.28;;;32.97;;
46723;SDS011;32463;48.298;11.620;2023-03-03T03:58:14;87.70;;;30.67;;
46723;SDS011;32463;48.298;11.620;2023-03-03T04:00:42;91.47;;;32.28;;
46723;SDS011;32463;48.298;11.620;2023-03-03T04:03:10;87.85;;;31.95;;
46723;SDS011;32463;48.298;11.620;2023-03-03T04:05:38;88.55;;;30.30;;
46723;SDS011;32463;48.298;11.620;2023-03-03T04:08:05;92.28;;;32.20;;
46723;SDS011;32463;48.298;11.620;2023-03-03T04:10:32;84.20;;;30.77;;
46723;SDS011;32463;48.298;11.620;2023-03-03T04:12:58;83.95;;;29.63;;
46723;SDS011;32463;48.298;11.620;2023-03-03T04:15:25;77.05;;;28.33;;
46723;SDS011;32463;48.298;11.620;2023-03-03T04:17:51;84.20;;;30.15;;
46723;SDS011;32463;48.298;11.620;2023-03-03T04:20:18;84.47;;;31.63;;
46723;SDS011;32463;48.298;11.620;2023-03-03T04:22:44;86.32;;;29.75;;
46723;SDS011;32463;48.298;11.620;2023-03-03T04:25:11;80.05;;;29.92;;
46723;SDS011;32463;48.298;11.620;2023-03-03T04:27:40;90.63;;;32.17;;
46723;SDS011;32463;48.298;11.620;2023-03-03T04:30:08;85.25;;;29.73;;
46723;SDS011;32463;48.298;11.620;2023-03-03T04:32:35;89.93;;;30.23;;
46723;SDS011;32463;48.298;11.620;2023-03-03T04:35:02;75.80;;;28.77;;
46723;SDS011;32463;48.298;11.620;2023-03-03T04:37:28;84.13;;;30.42;;
46723;SDS011;32463;48.298;11.620;2023-03-03T04:39:55;84.35;;;29.75;;
46723;SDS011;32463;48.298;11.620;2023-03-03T04:42:22;81.45;;;29.77;;
46723;SDS011;32463;48.298;11.620;2023-03-03T04:44:48;84.25;;;29.63;;
46723;SDS011;32463;48.298;11.620;2023-03-03T04:47:15;85.43;;;30.58;;
46723;SDS011;32463;48.298;11.620;2023-03-03T04:49:42;84.93;;;30.50;;
46723;SDS011;32463;48.298;11.620;2023-03-03T04:52:09;87.57;;;29.83;;
46723;SDS011;32463;48.298;11.620;2023-03-03T04:54:35;86.57;;;29.85;;
46723;SDS011;32463;48.298;11.620;2023-03-03T04:57:01;80.53;;;29.92;;
46723;SDS011;32463;48.298;11.620;2023-03-03T04:59:28;86.88;;;30.63;;
46723;SDS011;32463;48.298;11.620;2023-03-03T05:01:54;91.38;;;31.15;;
46723;SDS011;32463;48.298;11.620;2023-03-03T05:04:21;90.45;;;30.30;;
46723;SDS011;32463;48.298;11.620;2023-03-03T05:06:47;85.50;;;31.13;;
46723;SDS011;32463;48.298;11.620;2023-03-03T05:09:14;79.13;;;30.17;;
46723;SDS011;32463;48.298;11.620;2023-03-03T05:11:40;76.95;;;28.67;;
46723;SDS011;32463;48.298;11.620;2023-03-03T05:14:07;81.65;;;29.58;;
46723;SDS011;32463;48.298;11.620;2023-03-03T05:16:33;89.53;;;31.30;;
46723;SDS011;32463;48.298;11.620;2023-03-03T05:19:00;83.53;;;30.02;;
46723;SDS011;32463;48.298;11.620;2023-03-03T05:21:26;80.07;;;29.63;;
46723;SDS011;32463;48.298;11.620;2023-03-03T05:23:53;87.00;;;30.90;;
46723;SDS011;32463;48.298;11.620;2023-03-03T05:26:19;77.55;;;29.17;;
46723;SDS011;32463;48.298;11.620;2023-03-03T05:28:46;80.43;;;30.75;;
46723;SDS011;32463;48.298;11.620;2023-03-03T05:31:12;81.05;;;30.60;;
46723;SDS011;32463;48.298;11.620;2023-03-03T05:33:39;80.47;;;30.05;;
46723;SDS011;32463;48.298;11.620;2023-03-03T05:36:05;80.10;;;31.33;;
46723;SDS011;32463;48.298;11.620;2023-03-03T05:38:32;74.53;;;28.33;;
46723;SDS011;32463;48.298;11.620;2023-03-03T05:40:59;83.07;;;29.88;;
46723;SDS011;32463;48.298;11.620;2023-03-03T05:43:25;78.88;;;29.55;;
46723;SDS011;32463;48.298;11.620;2023-03-03T05:45:55;69.50;;;29.67;;
46723;SDS011;32463;48.298;11.620;2023-03-03T05:48:23;76.10;;;28.45;;
46723;SDS011;32463;48.298;11.620;2023-03-03T05:50:49;80.13;;;30.23;;
46723;SDS011;32463;48.298;11.620;2023-03-03T05:53:16;86.07;;;30.90;;
46723;SDS011;32463;48.298;11.620;2023-03-03T05:55:43;83.47;;;29.83;;
46723;SDS011;32463;48.298;11.620;2023-03-03T05:58:09;81.53;;;29.63;;
46723;SDS011;32463;48.298;11.620;2023-03-03T06:00:36;83.57;;;30.75;;
46723;SDS011;32463;48.298;11.620;2023-03-03T06:03:03;73.93;;;28.23;;
46723;SDS011;32463;48.298;11.620;2023-03-03T06:05:29;81.35;;;30.10;;
46723;SDS011;32463;48.298;11.620;2023-03-03T06:07:56;88.20;;;31.85;;
46723;SDS011;32463;48.298;11.620;2023-03-03T06:10:23;82.68;;;29.88;;
46723;SDS011;32463;48.298;11.620;2023-03-03T06:12:50;71.70;;;28.00;;
46723;SDS011;32463;48.298;11.620;2023-03-03T06:15:17;77.53;;;29.30;;
46723;SDS011;32463;48.298;11.620;2023-03-03T06:17:44;79.65;;;29.58;;
46723;SDS011;32463;48.298;11.620;2023-03-03T06:20:11;76.70;;;29.75;;
46723;SDS011;32463;48.298;11.620;2023-03-03T06:22:37;82.63;;;28.75;;
46723;SDS011;32463;48.298;11.620;2023-03-03T06:25:04;72.82;;;29.75;;
46723;SDS011;32463;48.298;11.620;2023-03-03T06:27:31;76.70;;;29.08;;
46723;SDS011;32463;48.298;11.620;2023-03-03T06:29:57;80.45;;;29.10;;
46723;SDS011;32463;48.298;11.620;2023-03-03T06:32:25;76.10;;;27.45;;
46723;SDS011;32463;48.298;11.620;2023-03-03T06:34:51;76.65;;;29.33;;
46723;SDS011;32463;48.298;11.620;2023-03-03T06:37:17;75.25;;;29.77;;
46723;SDS011;32463;48.298;11.620;2023-03-03T06:39:44;75.20;;;29.77;;
46723;SDS011;32463;48.298;11.620;2023-03-03T06:42:10;88.88;;;35.17;;
46723;SDS011;32463;48.298;11.620;2023-03-03T06:44:37;84.20;;;31.85;;
46723;SDS011;32463;48.298;11.620;2023-03-03T06:47:04;83.28;;;29.55;;
46723;SDS011;32463;48.298;11.620;2023-03-03T06:49:31;79.28;;;29.50;;
46723;SDS011;32463;48.298;11.620;2023-03-03T06:51:58;78.32;;;29.05;;
46723;SDS011;32463;48.298;11.620;2023-03-03T06:54:27;82.40;;;30.30;;
46723;SDS011;32463;48.298;11.620;2023-03-03T06:56:57;72.50;;;29.35;;
46723;SDS011;32463;48.298;11.620;2023-03-03T06:59:26;81.30;;;32.60;;
46723;SDS011;32463;48.298;11.620;2023-03-03T07:01:53;77.18;;;29.60;;
46723;SDS011;32463;48.298;11.620;2023-03-03T07:04:24;73.65;;;29.23;;
46723;SDS011;32463;48.298;11.620;2023-03-03T07:06:58;77.13;;;29.52;;
46723;SDS011;32463;48.298;11.620;2023-03-03T07:09:31;83.65;;;31.25;;
46723;SDS011;32463;48.298;11.620;2023-03-03T07:12:01;73.50;;;28.67;;
46723;SDS011;32463;48.298;11.620;2023-03-03T07:14:36;70.93;;;28.38;;
46723;SDS011;32463;48.298;11.620;2023-03-03T07:17:09;77.35;;;29.30;;
46723;SDS011;32463;48.298;11.620;2023-03-03T07:19:41;74.18;;;29.08;;
46723;SDS011;32463;48.298;11.620;2023-03-03T07:24:39;68.88;;;27.77;;
46723;SDS011;32463;48.298;11.620;2023-03-03T07:27:10;67.18;;;27.58;;
46723;SDS011;32463;48.298;11.620;2023-03-03T07:29:42;67.75;;;28.13;;
46723;SDS011;32463;48.298;11.620;2023-03-03T07:34:58;70.95;;;28.60;;
46723;SDS011;32463;48.298;11.620;2023-03-03T07:37:28;67.30;;;27.90;;
46723;SDS011;32463;48.298;11.620;2023-03-03T07:40:00;69.72;;;28.25;;
46723;SDS011;32463;48.298;11.620;2023-03-03T07:42:39;68.50;;;28.45;;
46723;SDS011;32463;48.298;11.620;2023-03-03T07:45:19;66.88;;;29.00;;
46723;SDS011;32463;48.298;11.620;2023-03-03T07:47:55;65.78;;;28.15;;
46723;SDS011;32463;48.298;11.620;2023-03-03T07:50:41;60.83;;;27.35;;
46723;SDS011;32463;48.298;11.620;2023-03-03T07:53:12;64.28;;;28.58;;
46723;SDS011;32463;48.298;11.620;2023-03-03T07:55:46;66.80;;;27.65;;
46723;SDS011;32463;48.298;11.620;2023-03-03T07:58:28;66.97;;;28.02;;
46723;SDS011;32463;48.298;11.620;2023-03-03T08:03:59;66.47;;;28.95;;
46723;SDS011;32463;48.298;11.620;2023-03-03T08:12:22;67.05;;;27.27;;
46723;SDS011;32463;48.298;11.620;2023-03-03T08:14:34;66.38;;;27.48;;
46723;SDS011;32463;48.298;11.620;2023-03-03T08:17:02;65.03;;;26.42;;
46723;SDS011;32463;48.298;11.620;2023-03-03T08:19:39;63.45;;;27.02;;
46723;SDS011;32463;48.298;11.620;2023-03-03T08:25:02;62.95;;;27.00;;
46723;SDS011;32463;48.298;11.620;2023-03-03T08:27:28;60.65;;;25.67;;
46723;SDS011;32463;48.298;11.620;2023-03-03T08:29:55;62.83;;;28.08;;
46723;SDS011;32463;48.298;11.620;2023-03-03T08:32:21;62.00;;;26.98;;
46723;SDS011;32463;48.298;11.620;2023-03-03T08:34:48;63.70;;;29.10;;
46723;SDS011;32463;48.298;11.620;2023-03-03T08:37:14;63.78;;;28.30;;
46723;SDS011;32463;48.298;11.620;2023-03-03T08:39:41;68.53;;;28.42;;
46723;SDS011;32463;48.298;11.620;2023-03-03T08:42:08;63.72;;;27.23;;
46723;SDS011;32463;48.298;11.620;2023-03-03T08:44:34;59.95;;;28.35;;
46723;SDS011;32463;48.298;11.620;2023-03-03T08:47:01;61.28;;;26.90;;
46723;SDS011;32463;48.298;11.620;2023-03-03T08:49:27;58.22;;;27.75;;
46723;SDS011;32463;48.298;11.620;2023-03-03T08:51:57;62.00;;;27.83;;
46723;SDS011;32463;48.298;11.620;2023-03-03T08:54:24;58.65;;;28.33;;
46723;SDS011;32463;48.298;11.620;2023-03-03T08:56:52;55.55;;;26.20;;
46723;SDS011;32463;48.298;11.620;2023-03-03T08:59:18;61.40;;;28.98;;
46723;SDS011;32463;48.298;11.620;2023-03-03T09:01:46;61.92;;;27.65;;
46723;SDS011;32463;48.298;11.620;2023-03-03T09:04:14;55.90;;;27.50;;
46723;SDS011;32463;48.298;11.620;2023-03-03T09:06:40;59.83;;;27.40;;
46723;SDS011;32463;48.298;11.620;2023-03-03T09:09:07;60.20;;;28.63;;
46723;SDS011;32463;48.298;11.620;2023-03-03T09:11:34;59.25;;;26.52;;
46723;SDS011;32463;48.298;11.620;2023-03-03T09:14:11;55.38;;;26.92;;
46723;SDS011;32463;48.298;11.620;2023-03-03T09:16:41;59.55;;;27.80;;
46723;SDS011;32463;48.298;11.620;2023-03-03T09:21:58;50.97;;;26.50;;
46723;SDS011;32463;48.298;11.620;2023-03-03T09:24:30;54.05;;;25.35;;
46723;SDS011;32463;48.298;11.620;2023-03-03T09:27:01;54.95;;;26.23;;
46723;SDS011;32463;48.298;11.620;2023-03-03T09:29:32;57.35;;;26.75;;
46723;SDS011;32463;48.298;11.620;2023-03-03T09:32:45;53.75;;;28.15;;
46723;SDS011;32463;48.298;11.620;2023-03-03T09:34:58;62.20;;;28.45;;
46723;SDS011;32463;48.298;11.620;2023-03-03T09:37:45;56.85;;;27.42;;
46723;SDS011;32463;48.298;11.620;2023-03-03T09:45:58;56.75;;;26.98;;
46723;SDS011;32463;48.298;11.620;2023-03-03T09:56:24;54.10;;;26.08;;
46723;SDS011;32463;48.298;11.620;2023-03-03T10:19:38;56.17;;;26.83;;
46723;SDS011;32463;48.298;11.620;2023-03-03T10:26:35;60.00;;;29.67;;
46723;SDS011;32463;48.298;11.620;2023-03-03T10:29:07;53.38;;;28.27;;
46723;SDS011;32463;48.298;11.620;2023-03-03T10:31:39;53.85;;;27.63;;
46723;SDS011;32463;48.298;11.620;2023-03-03T10:37:05;52.47;;;27.55;;
46723;SDS011;32463;48.298;11.620;2023-03-03T11:06:23;47.60;;;26.23;;
46723;SDS011;32463;48.298;11.620;2023-03-03T11:11:52;46.05;;;25.88;;
46723;SDS011;32463;48.298;11.620;2023-03-03T11:14:30;44.42;;;25.70;;
46723;SDS011;32463;48.298;11.620;2023-03-03T11:17:27;45.78;;;25.40;;
46723;SDS011;32463;48.298;11.620;2023-03-03T11:26:10;46.60;;;27.05;;
46723;SDS011;32463;48.298;11.620;2023-03-03T11:31:20;46.63;;;27.17;;
46723;SDS011;32463;48.298;11.620;2023-03-03T11:36:22;47.72;;;27.77;;
46723;SDS011;32463;48.298;11.620;2023-03-03T11:44:04;42.90;;;26.52;;
46723;SDS011;32463;48.298;11.620;2023-03-03T11:46:41;48.35;;;26.95;;
46723;SDS011;32463;48.298;11.620;2023-03-03T11:49:19;48.47;;;27.90;;
46723;SDS011;32463;48.298;11.620;2023-03-03T11:51:50;43.20;;;27.52;;
46723;SDS011;32463;48.298;11.620;2023-03-03T11:57:14;42.80;;;25.65;;
46723;SDS011;32463;48.298;11.620;2023-03-03T11:59:45;51.58;;;28.20;;
46723;SDS011;32463;48.298;11.620;2023-03-03T12:04:52;48.03;;;27.73;;
46723;SDS011;32463;48.298;11.620;2023-03-03T12:12:43;43.17;;;26.08;;
46723;SDS011;32463;48.298;11.620;2023-03-03T12:23:37;41.40;;;26.48;;
46723;SDS011;32463;48.298;11.620;2023-03-03T12:26:15;46.20;;;27.13;;
46723;SDS011;32463;48.298;11.620;2023-03-03T12:31:34;48.88;;;27.27;;
46723;SDS011;32463;48.298;11.620;2023-03-03T12:37:14;44.80;;;26.92;;
46723;SDS011;32463;48.298;11.620;2023-03-03T12:42:46;47.55;;;26.38;;
46723;SDS011;32463;48.298;11.620;2023-03-03T12:47:55;40.55;;;26.95;;
46723;SDS011;32463;48.298;11.620;2023-03-03T12:55:59;39.35;;;26.38;;
46723;SDS011;32463;48.298;11.620;2023-03-03T12:58:33;40.72;;;25.75;;
46723;SDS011;32463;48.298;11.620;2023-03-03T13:14:55;40.70;;;26.55;;
46723;SDS011;32463;48.298;11.620;2023-03-03T13:17:26;38.03;;;26.00;;
46723;SDS011;32463;48.298;11.620;2023-03-03T13:23:11;31.77;;;23.13;;
46723;SDS011;32463;48.298;11.620;2023-03-03T13:28:59;38.47;;;26.65;;
46723;SDS011;32463;48.298;11.620;2023-03-03T13:31:31;41.78;;;28.35;;
46723;SDS011;32463;48.298;11.620;2023-03-03T13:34:01;41.95;;;27.08;;
46723;SDS011;32463;48.298;11.620;2023-03-03T13:36:35;43.92;;;26.35;;
46723;SDS011;32463;48.298;11.620;2023-03-03T13:39:16;40.97;;;27.27;;
46723;SDS011;32463;48.298;11.620;2023-03-03T13:42:07;39.53;;;27.73;;
46723;SDS011;32463;48.298;11.620;2023-03-03T13:44:47;40.47;;;26.52;;
46723;SDS011;32463;48.298;11.620;2023-03-03T14:04:18;38.80;;;26.95;;
46723;SDS011;32463;48.298;11.620;2023-03-03T14:07:17;40.38;;;27.33;;
46723;SDS011;32463;48.298;11.620;2023-03-03T14:10:02;35.70;;;24.48;;
46723;SDS011;32463;48.298;11.620;2023-03-03T14:20:38;40.20;;;25.20;;
46723;SDS011;32463;48.298;11.620;2023-03-03T14:23:24;42.75;;;26.42;;
46723;SDS011;32463;48.298;11.620;2023-03-03T14:28:39;42.17;;;26.02;;
46723;SDS011;32463;48.298;11.620;2023-03-03T14:31:29;43.45;;;27.02;;
46723;SDS011;32463;48.298;11.620;2023-03-03T14:36:35;45.28;;;26.85;;
46723;SDS011;32463;48.298;11.620;2023-03-03T14:41:57;45.60;;;27.07;;
46723;SDS011;32463;48.298;11.620;2023-03-03T14:49:41;44.25;;;25.90;;
46723;SDS011;32463;48.298;11.620;2023-03-03T14:54:42;45.83;;;28.27;;
46723;SDS011;32463;48.298;11.620;2023-03-03T15:00:08;43.38;;;25.50;;
46723;SDS011;32463;48.298;11.620;2023-03-03T15:05:22;51.40;;;26.83;;
46723;SDS011;32463;48.298;11.620;2023-03-03T15:07:51;42.40;;;26.05;;
46723;SDS011;32463;48.298;11.620;2023-03-03T15:10:28;48.67;;;26.98;;
46723;SDS011;32463;48.298;11.620;2023-03-03T15:22:12;42.75;;;25.77;;
46723;SDS011;32463;48.298;11.620;2023-03-03T15:24:51;52.78;;;26.23;;
46723;SDS011;32463;48.298;11.620;2023-03-03T15:27:32;47.08;;;25.67;;
46723;SDS011;32463;48.298;11.620;2023-03-03T15:30:14;63.05;;;26.58;;
46723;SDS011;32463;48.298;11.620;2023-03-03T15:35:50;48.53;;;26.85;;
46723;SDS011;32463;48.298;11.620;2023-03-03T15:38:26;48.67;;;26.17;;
46723;SDS011;32463;48.298;11.620;2023-03-03T15:56:58;50.95;;;29.05;;
46723;SDS011;32463;48.298;11.620;2023-03-03T16:02:39;49.85;;;26.30;;
46723;SDS011;32463;48.298;11.620;2023-03-03T16:05:25;54.10;;;27.38;;
46723;SDS011;32463;48.298;11.620;2023-03-03T16:13:23;45.65;;;25.92;;
46723;SDS011;32463;48.298;11.620;2023-03-03T16:16:19;52.33;;;28.48;;
46723;SDS011;32463;48.298;11.620;2023-03-03T16:32:33;48.05;;;28.17;;
46723;SDS011;32463;48.298;11.620;2023-03-03T16:35:15;50.53;;;26.77;;
46723;SDS011;32463;48.298;11.620;2023-03-03T16:40:34;56.08;;;29.63;;
46723;SDS011;32463;48.298;11.620;2023-03-03T16:52:02;58.35;;;29.90;;
46723;SDS011;32463;48.298;11.620;2023-03-03T16:54:34;54.22;;;30.23;;
46723;SDS011;32463;48.298;11.620;2023-03-03T17:04:53;58.42;;;29.30;;
46723;SDS011;32463;48.298;11.620;2023-03-03T17:09:59;54.03;;;27.98;;
46723;SDS011;32463;48.298;11.620;2023-03-03T17:15:33;63.50;;;31.35;;
46723;SDS011;32463;48.298;11.620;2023-03-03T17:18:35;63.63;;;29.70;;
46723;SDS011;32463;48.298;11.620;2023-03-03T17:24:09;68.25;;;32.58;;
46723;SDS011;32463;48.298;11.620;2023-03-03T17:38:01;64.55;;;31.75;;
46723;SDS011;32463;48.298;11.620;2023-03-03T17:43:28;60.17;;;31.30;;
46723;SDS011;32463;48.298;11.620;2023-03-03T17:46:17;55.25;;;28.67;;
46723;SDS011;32463;48.298;11.620;2023-03-03T17:49:41;61.78;;;29.77;;
46723;SDS011;32463;48.298;11.620;2023-03-03T18:00:17;61.40;;;29.38;;
46723;SDS011;32463;48.298;11.620;2023-03-03T18:03:22;56.88;;;29.55;;
46723;SDS011;32463;48.298;11.620;2023-03-03T18:09:08;62.50;;;31.17;;
46723;SDS011;32463;48.298;11.620;2023-03-03T18:22:52;64.95;;;32.80;;
46723;SDS011;32463;48.298;11.620;2023-03-03T18:25:20;64.30;;;32.20;;
46723;SDS011;32463;48.298;11.620;2023-03-03T18:30:49;67.05;;;32.38;;
46723;SDS011;32463;48.298;11.620;2023-03-03T18:33:35;70.80;;;34.15;;
46723;SDS011;32463;48.298;11.620;2023-03-03T18:38:56;64.80;;;31.88;;
46723;SDS011;32463;48.298;11.620;2023-03-03T18:41:27;70.55;;;34.53;;
46723;SDS011;32463;48.298;11.620;2023-03-03T18:44:03;85.15;;;40.45;;
46723;SDS011;32463;48.298;11.620;2023-03-03T18:46:50;148.50;;;70.05;;
46723;SDS011;32463;48.298;11.620;2023-03-03T18:49:18;81.60;;;36.92;;
46723;SDS011;32463;48.298;11.620;2023-03-03T18:52:21;71.35;;;33.33;;
46723;SDS011;32463;48.298;11.620;2023-03-03T18:55:19;69.70;;;33.22;;
46723;SDS011;32463;48.298;11.620;2023-03-03T18:58:00;71.95;;;34.42;;
46723;SDS011;32463;48.298;11.620;2023-03-03T19:00:49;67.40;;;33.72;;
46723;SDS011;32463;48.298;11.620;2023-03-03T19:03:23;71.13;;;34.85;;
46723;SDS011;32463;48.298;11.620;2023-03-03T19:06:00;66.25;;;32.25;;
46723;SDS011;32463;48.298;11.620;2023-03-03T19:08:43;77.88;;;34.63;;
46723;SDS011;32463;48.298;11.620;2023-03-03T19:16:50;74.40;;;35.85;;
46723;SDS011;32463;48.298;11.620;2023-03-03T19:19:22;73.70;;;33.88;;
46723;SDS011;32463;48.298;11.620;2023-03-03T19:27:35;78.63;;;35.00;;
46723;SDS011;32463;48.298;11.620;2023-03-03T19:30:41;69.72;;;34.90;;
46723;SDS011;32463;48.298;11.620;2023-03-03T19:33:11;71.68;;;34.08;;
46723;SDS011;32463;48.298;11.620;2023-03-03T19:35:53;75.38;;;35.13;;
46723;SDS011;32463;48.298;11.620;2023-03-03T19:41:25;72.70;;;35.25;;
46723;SDS011;32463;48.298;11.620;2023-03-03T19:52:28;75.88;;;35.33;;
46723;SDS011;32463;48.298;11.620;2023-03-03T19:55:17;87.57;;;36.50;;
46723;SDS011;32463;48.298;11.620;2023-03-03T20:00:45;78.53;;;36.92;;
46723;SDS011;32463;48.298;11.620;2023-03-03T20:08:54;88.43;;;37.90;;
46723;SDS011;32463;48.298;11.620;2023-03-03T20:11:28;90.20;;;38.58;;
46723;SDS011;32463;48.298;11.620;2023-03-03T20:14:30;87.47;;;38.03;;
46723;SDS011;32463;48.298;11.620;2023-03-03T20:25:23;97.70;;;39.22;;
46723;SDS011;32463;48.298;11.620;2023-03-03T20:47:32;97.80;;;42.72;;
46723;SDS011;32463;48.298;11.620;2023-03-03T20:50:26;99.82;;;40.95;;
46723;SDS011;32463;48.298;11.620;2023-03-03T20:58:31;92.50;;;42.25;;
46723;SDS011;32463;48.298;11.620;2023-03-03T21:01:15;89.45;;;40.63;;
46723;SDS011;32463;48.298;11.620;2023-03-03T21:04:16;97.53;;;41.83;;
46723;SDS011;32463;48.298;11.620;2023-03-03T21:06:48;94.40;;;39.35;;
46723;SDS011;32463;48.298;11.620;2023-03-03T21:09:22;100.93;;;39.72;;
46723;SDS011;32463;48.298;11.620;2023-03-03T21:11:51;97.47;;;40.97;;
46723;SDS011;32463;48.298;11.620;2023-03-03T21:14:19;100.25;;;40.78;;
46723;SDS011;32463;48.298;11.620;2023-03-03T21:16:46;95.00;;;39.33;;
46723;SDS011;32463;48.298;11.620;2023-03-03T21:22:10;96.38;;;39.97;;
46723;SDS011;32463;48.298;11.620;2023-03-03T21:24:53;94.97;;;41.22;;
46723;SDS011;32463;48.298;11.620;2023-03-03T21:27:34;89.50;;;39.67;;
46723;SDS011;32463;48.298;11.620;2023-03-03T21:30:14;91.80;;;38.83;;
46723;SDS011;32463;48.298;11.620;2023-03-03T21:32:42;96.18;;;39.58;;
46723;SDS011;32463;48.298;11.620;2023-03-03T21:37:56;102.22;;;41.95;;